createdAt,value
2023-02-13T00:01:52.945Z,79.39
2023-02-13T00:04:19.298Z,79.56
2023-02-13T00:06:47.690Z,79.07
2023-02-13T00:09:14.711Z,79.44
2023-02-13T00:11:41.215Z,79.55
2023-02-13T00:14:07.621Z,80.09
2023-02-13T00:16:34.360Z,79.55
2023-02-13T00:19:00.686Z,79.59
2023-02-13T00:21:27.061Z,79.49
2023-02-13T00:23:53.437Z,79.87
2023-02-13T00:26:19.885Z,79.80
2023-02-13T00:28:47.386Z,80.44
2023-02-13T00:31:17.682Z,80.33
2023-02-13T00:33:44.524Z,79.87
2023-02-13T00:36:16.600Z,80.08
2023-02-13T00:38:44.585Z,80.31
2023-02-13T00:41:12.337Z,80.39
2023-02-13T00:43:38.872Z,80.00
2023-02-13T00:46:06.306Z,80.15
2023-02-13T00:48:34.429Z,80.21
2023-02-13T00:51:01.355Z,80.06
2023-02-13T00:53:30.728Z,80.24
2023-02-13T00:55:57.156Z,80.47
2023-02-13T00:58:24.273Z,80.26
2023-02-13T01:00:52.654Z,80.68
2023-02-13T01:03:19.636Z,80.25
2023-02-13T01:05:46.778Z,80.32
2023-02-13T01:08:14.162Z,80.23
2023-02-13T01:10:41.703Z,80.52
2023-02-13T01:13:08.915Z,79.92
2023-02-13T01:15:35.757Z,80.62
2023-02-13T01:18:02.221Z,79.97
2023-02-13T01:20:29.696Z,80.44
2023-02-13T01:22:58.061Z,80.43
2023-02-13T01:25:25.017Z,80.16
2023-02-13T01:27:51.595Z,80.15
2023-02-13T01:30:19.178Z,79.98
2023-02-13T01:32:47.692Z,80.70
2023-02-13T01:35:15.264Z,79.82
2023-02-13T01:37:42.168Z,80.47
2023-02-13T01:40:12.010Z,80.25
2023-02-13T01:42:38.886Z,79.80
2023-02-13T01:45:22.502Z,80.08
2023-02-13T01:48:07.211Z,79.95
2023-02-13T01:50:39.623Z,79.58
2023-02-13T01:53:30.480Z,79.73
2023-02-13T01:56:21.443Z,79.33
2023-02-13T01:58:51.158Z,79.47
2023-02-13T02:01:17.627Z,79.55
2023-02-13T02:03:47.602Z,79.13
2023-02-13T02:06:23.863Z,79.66
2023-02-13T02:08:53.652Z,79.45
2023-02-13T02:11:30.498Z,79.18
2023-02-13T02:13:58.147Z,79.49
2023-02-13T02:16:33.343Z,79.63
2023-02-13T02:19:04.174Z,79.33
2023-02-13T02:21:46.125Z,79.14
2023-02-13T02:24:47.636Z,78.99
2023-02-13T02:27:40.279Z,78.84
2023-02-13T02:30:46.304Z,79.12
2023-02-13T02:33:34.145Z,79.57
2023-02-13T02:36:05.291Z,78.99
2023-02-13T02:38:35.383Z,79.28
2023-02-13T02:41:42.760Z,79.46
2023-02-13T02:44:38.903Z,78.83
2023-02-13T02:47:47.856Z,78.71
2023-02-13T02:50:32.811Z,78.73
2023-02-13T02:53:38.207Z,78.91
2023-02-13T02:56:14.465Z,79.15
2023-02-13T02:59:12.640Z,78.94
2023-02-13T03:01:59.387Z,78.89
2023-02-13T03:04:52.071Z,79.04
2023-02-13T03:07:19.476Z,78.73
2023-02-13T03:10:08.331Z,78.62
2023-02-13T03:13:02.518Z,78.86
2023-02-13T03:15:29.859Z,78.94
2023-02-13T03:18:16.612Z,79.17
2023-02-13T03:21:07.867Z,78.94
2023-02-13T03:24:02.406Z,79.07
2023-02-13T03:26:50.139Z,78.83
2023-02-13T03:29:48.601Z,78.85
2023-02-13T03:32:17.669Z,78.96
2023-02-13T03:35:11.715Z,79.09
2023-02-13T03:37:57.018Z,79.59
2023-02-13T03:40:36.651Z,79.52
2023-02-13T03:43:16.570Z,79.32
2023-02-13T03:45:53.399Z,78.89
2023-02-13T03:48:47.549Z,79.11
2023-02-13T03:51:20.373Z,79.37
2023-02-13T03:53:52.377Z,79.34
2023-02-13T03:56:40.473Z,79.61
2023-02-13T03:59:17.634Z,80.00
2023-02-13T04:01:51.403Z,79.65
2023-02-13T04:04:48.251Z,80.07
2023-02-13T04:07:29.463Z,79.66
2023-02-13T04:10:00.446Z,79.52
2023-02-13T04:12:50.646Z,80.00
2023-02-13T04:15:24.470Z,79.59
2023-02-13T04:18:05.379Z,79.77
2023-02-13T04:20:32.605Z,79.63
2023-02-13T04:23:05.774Z,79.59
2023-02-13T04:25:32.355Z,79.60
2023-02-13T04:27:58.700Z,80.05
2023-02-13T04:30:25.151Z,79.53
2023-02-13T04:32:52.778Z,79.49
2023-02-13T04:35:19.202Z,79.79
2023-02-13T04:37:45.558Z,79.29
2023-02-13T04:40:12.174Z,79.48
2023-02-13T04:42:38.531Z,79.54
2023-02-13T04:45:05.229Z,79.54
2023-02-13T04:47:31.571Z,79.62
2023-02-13T04:49:57.954Z,80.09
2023-02-13T04:52:24.330Z,79.79
2023-02-13T04:54:50.723Z,79.72
2023-02-13T04:57:17.042Z,79.29
2023-02-13T04:59:43.567Z,79.01
2023-02-13T05:02:10.058Z,78.95
2023-02-13T05:04:36.414Z,78.86
2023-02-13T05:07:02.818Z,79.13
2023-02-13T05:09:29.187Z,79.40
2023-02-13T05:11:55.661Z,79.34
2023-02-13T05:14:22.146Z,79.02
2023-02-13T05:16:49.666Z,78.93
2023-02-13T05:19:16.884Z,79.53
2023-02-13T05:22:01.731Z,79.75
2023-02-13T05:24:28.106Z,79.05
2023-02-13T05:26:54.447Z,79.59
2023-02-13T05:29:22.446Z,79.90
2023-02-13T05:31:55.035Z,79.91
2023-02-13T05:34:22.959Z,79.54
2023-02-13T05:36:49.915Z,79.68
2023-02-13T05:39:16.402Z,79.76
2023-02-13T05:41:44.393Z,80.19
2023-02-13T05:44:11.732Z,80.56
2023-02-13T05:46:39.988Z,80.00
2023-02-13T05:49:07.671Z,80.25
2023-02-13T05:51:34.118Z,80.01
2023-02-13T05:54:00.507Z,80.70
2023-02-13T05:56:26.975Z,79.97
2023-02-13T05:58:57.172Z,80.00
2023-02-13T06:01:24.614Z,79.90
2023-02-13T06:03:51.578Z,80.39
2023-02-13T06:06:18.218Z,80.77
2023-02-13T06:08:44.629Z,80.42
2023-02-13T06:11:12.308Z,80.47
2023-02-13T06:13:40.623Z,80.38
2023-02-13T06:16:11.672Z,80.57
2023-02-13T06:18:39.161Z,80.45
2023-02-13T06:21:06.712Z,80.20
2023-02-13T06:23:33.178Z,80.34
2023-02-13T06:26:07.517Z,80.96
2023-02-13T06:28:34.486Z,80.46
2023-02-13T06:31:01.802Z,80.84
2023-02-13T06:33:28.560Z,80.46
2023-02-13T06:35:54.900Z,80.72
2023-02-13T06:38:21.451Z,80.85
2023-02-13T06:40:48.870Z,80.63
2023-02-13T06:43:16.126Z,80.61
2023-02-13T06:45:42.479Z,81.01
2023-02-13T06:48:09.449Z,81.08
2023-02-13T06:50:36.179Z,80.73
2023-02-13T06:53:02.513Z,80.86
2023-02-13T06:55:29.002Z,80.83
2023-02-13T06:57:55.347Z,80.84
2023-02-13T07:00:21.915Z,80.97
2023-02-13T07:02:48.484Z,80.56
2023-02-13T07:05:15.241Z,80.68
2023-02-13T07:07:42.731Z,81.10
2023-02-13T07:10:11.913Z,81.66
2023-02-13T07:12:38.460Z,81.56
2023-02-13T07:15:06.291Z,81.98
2023-02-13T07:17:33.839Z,82.03
2023-02-13T07:20:00.222Z,82.42
2023-02-13T07:22:26.564Z,82.26
2023-02-13T07:24:52.897Z,82.51
2023-02-13T07:27:19.262Z,82.67
2023-02-13T07:29:45.598Z,83.10
2023-02-13T07:32:12.018Z,83.15
2023-02-13T07:34:39.919Z,83.37
2023-02-13T07:37:09.058Z,84.39
2023-02-13T07:39:38.725Z,84.18
2023-02-13T07:42:06.218Z,83.98
2023-02-13T07:44:32.891Z,84.28
2023-02-13T07:47:00.941Z,84.38
2023-02-13T07:49:27.337Z,84.28
2023-02-13T07:51:56.347Z,84.14
2023-02-13T07:54:22.673Z,84.21
2023-02-13T07:56:48.985Z,83.81
2023-02-13T07:59:15.684Z,83.49
2023-02-13T08:01:42.041Z,82.96
2023-02-13T08:04:08.482Z,82.93
2023-02-13T08:06:34.883Z,82.07
2023-02-13T08:09:19.859Z,81.89
2023-02-13T08:11:55.070Z,81.33
2023-02-13T08:14:26.568Z,81.41
2023-02-13T08:16:54.415Z,80.79
2023-02-13T08:19:21.188Z,80.11
2023-02-13T08:21:47.652Z,80.26
2023-02-13T08:24:14.016Z,79.75
2023-02-13T08:26:40.438Z,79.39
2023-02-13T08:29:07.354Z,78.77
2023-02-13T08:31:33.990Z,79.52
2023-02-13T08:34:00.584Z,79.30
2023-02-13T08:36:27.136Z,78.61
2023-02-13T08:38:53.482Z,78.82
2023-02-13T08:41:22.025Z,77.82
2023-02-13T08:43:49.762Z,78.19
2023-02-13T08:46:17.252Z,77.66
2023-02-13T08:48:43.859Z,76.91
2023-02-13T08:51:11.840Z,76.82
2023-02-13T08:53:38.980Z,77.32
2023-02-13T08:56:06.380Z,76.59
2023-02-13T08:58:33.097Z,76.31
2023-02-13T09:00:59.452Z,75.20
2023-02-13T09:03:25.798Z,75.72
2023-02-13T09:05:52.203Z,75.59
2023-02-13T09:08:19.037Z,75.19
2023-02-13T09:10:45.527Z,74.44
2023-02-13T09:13:12.512Z,74.42
2023-02-13T09:15:42.927Z,74.17
2023-02-13T09:18:09.420Z,73.63
2023-02-13T09:20:36.223Z,72.85
2023-02-13T09:23:03.650Z,72.18
2023-02-13T09:25:31.229Z,71.92
2023-02-13T09:27:59.549Z,71.88
2023-02-13T09:30:26.160Z,72.25
2023-02-13T09:32:53.717Z,70.63
2023-02-13T09:35:20.935Z,69.97
2023-02-13T09:37:47.383Z,69.26
2023-02-13T09:40:23.015Z,69.48
2023-02-13T09:42:50.073Z,69.30
2023-02-13T09:45:20.360Z,68.79
2023-02-13T09:47:47.562Z,69.56
2023-02-13T09:50:25.383Z,69.37
2023-02-13T09:52:54.463Z,67.85
2023-02-13T09:55:29.508Z,69.03
2023-02-13T09:58:08.642Z,68.80
2023-02-13T10:00:40.118Z,67.85
2023-02-13T10:03:23.533Z,67.65
2023-02-13T10:06:05.819Z,66.74
2023-02-13T10:08:49.704Z,67.36
2023-02-13T10:11:25.904Z,67.35
2023-02-13T10:14:00.261Z,67.25
2023-02-13T10:17:02.236Z,65.75
2023-02-13T10:19:35.368Z,66.14
2023-02-13T10:22:10.971Z,65.28
2023-02-13T10:24:44.409Z,65.89
2023-02-13T10:27:34.852Z,66.08
2023-02-13T10:30:12.798Z,64.98
2023-02-13T10:32:52.061Z,63.03
2023-02-13T10:35:29.114Z,64.30
2023-02-13T10:37:59.266Z,61.97
2023-02-13T10:40:33.562Z,62.52
2023-02-13T10:43:10.556Z,62.46
2023-02-13T10:45:55.371Z,62.14
2023-02-13T10:48:49.824Z,60.86
2023-02-13T10:51:31.226Z,60.34
2023-02-13T10:54:39.207Z,62.02
2023-02-13T10:57:22.120Z,61.49
2023-02-13T11:00:07.957Z,60.45
2023-02-13T11:02:35.702Z,60.89
2023-02-13T11:05:14.056Z,61.46
2023-02-13T11:07:42.267Z,61.07
2023-02-13T11:10:24.945Z,60.82
2023-02-13T11:12:52.417Z,60.99
2023-02-13T11:15:30.051Z,60.58
2023-02-13T11:18:14.776Z,58.57
2023-02-13T11:20:46.654Z,58.52
2023-02-13T11:23:25.182Z,59.29
2023-02-13T11:26:02.717Z,59.79
2023-02-13T11:28:31.789Z,58.22
2023-02-13T11:31:24.647Z,59.15
2023-02-13T11:33:51.150Z,56.70
2023-02-13T11:36:37.789Z,56.00
2023-02-13T11:39:17.046Z,55.75
2023-02-13T11:41:45.482Z,57.79
2023-02-13T11:44:26.162Z,56.74
2023-02-13T11:46:55.745Z,56.49
2023-02-13T11:49:32.731Z,57.14
2023-02-13T11:52:27.573Z,56.95
2023-02-13T11:54:59.606Z,56.92
2023-02-13T11:57:35.746Z,55.06
2023-02-13T12:00:54.264Z,55.87
2023-02-13T12:03:29.449Z,56.63
2023-02-13T12:06:14.114Z,53.69
2023-02-13T12:08:44.033Z,53.97
2023-02-13T12:11:22.320Z,53.63
2023-02-13T12:13:49.454Z,54.91
2023-02-13T12:16:36.400Z,54.80
2023-02-13T12:19:07.516Z,54.51
2023-02-13T12:21:48.637Z,54.26
2023-02-13T12:24:33.954Z,54.59
2023-02-13T12:27:23.423Z,54.20
2023-02-13T12:29:55.781Z,54.14
2023-02-13T12:32:56.040Z,53.73
2023-02-13T12:35:55.071Z,53.40
2023-02-13T12:38:57.198Z,53.39
2023-02-13T12:41:33.153Z,53.62
2023-02-13T12:44:41.452Z,53.16
2023-02-13T12:47:22.426Z,52.58
2023-02-13T12:50:06.923Z,52.67
2023-02-13T12:52:47.070Z,52.61
2023-02-13T12:55:22.924Z,52.13
2023-02-13T12:58:12.227Z,52.76
2023-02-13T13:00:59.825Z,52.99
2023-02-13T13:03:49.639Z,51.99
2023-02-13T13:06:29.918Z,51.89
2023-02-13T13:09:17.089Z,51.88
2023-02-13T13:12:24.961Z,52.54
2023-02-13T13:14:57.422Z,51.96
2023-02-13T13:17:32.948Z,51.87
2023-02-13T13:20:23.012Z,52.11
2023-02-13T13:22:56.987Z,51.33
2023-02-13T13:25:46.064Z,52.02
2023-02-13T13:28:29.523Z,52.30
2023-02-13T13:30:58.784Z,52.16
2023-02-13T13:33:28.033Z,51.72
2023-02-13T13:36:07.413Z,50.47
2023-02-13T13:38:51.741Z,51.62
2023-02-13T13:41:33.393Z,50.60
2023-02-13T13:44:41.230Z,50.26
2023-02-13T13:47:36.620Z,51.05
2023-02-13T13:50:05.891Z,51.25
2023-02-13T13:52:35.071Z,50.92
2023-02-13T13:55:04.271Z,50.69
2023-02-13T13:57:42.886Z,51.65
2023-02-13T14:00:09.936Z,51.25
2023-02-13T14:03:10.834Z,51.68
2023-02-13T14:06:01.874Z,51.33
2023-02-13T14:08:56.067Z,51.38
2023-02-13T14:11:33.376Z,51.44
2023-02-13T14:14:00.463Z,52.60
2023-02-13T14:16:46.285Z,51.82
2023-02-13T14:19:35.535Z,51.87
2023-02-13T14:22:20.096Z,51.94
2023-02-13T14:24:51.244Z,52.35
2023-02-13T14:27:27.305Z,53.01
2023-02-13T14:29:55.802Z,52.81
2023-02-13T14:32:30.928Z,52.81
2023-02-13T14:35:01.440Z,53.30
2023-02-13T14:37:35.051Z,52.25
2023-02-13T14:40:28.433Z,53.16
2023-02-13T14:42:58.749Z,52.66
2023-02-13T14:45:46.693Z,53.39
2023-02-13T14:48:15.495Z,52.24
2023-02-13T14:50:51.636Z,52.48
2023-02-13T14:53:28.663Z,52.67
2023-02-13T14:56:07.208Z,52.50
2023-02-13T14:58:37.018Z,53.41
2023-02-13T15:01:07.949Z,53.98
2023-02-13T15:03:34.280Z,54.38
2023-02-13T15:06:05.666Z,54.66
2023-02-13T15:08:38.078Z,54.70
2023-02-13T15:11:04.506Z,55.40
2023-02-13T15:13:37.186Z,55.05
2023-02-13T15:16:11.748Z,55.37
2023-02-13T15:18:45.248Z,55.70
2023-02-13T15:21:18.391Z,55.72
2023-02-13T15:23:50.175Z,56.12
2023-02-13T15:26:23.857Z,55.63
2023-02-13T15:29:09.127Z,56.39
2023-02-13T15:31:38.154Z,55.92
2023-02-13T15:34:20.398Z,56.40
2023-02-13T15:36:47.711Z,56.36
2023-02-13T15:39:20.538Z,57.06
2023-02-13T15:41:50.487Z,56.57
2023-02-13T15:44:20.653Z,56.94
2023-02-13T15:46:48.426Z,56.87
2023-02-13T15:49:22.136Z,57.97
2023-02-13T15:51:49.100Z,58.01
2023-02-13T15:54:31.062Z,58.40
2023-02-13T15:57:00.785Z,58.83
2023-02-13T15:59:33.559Z,59.15
2023-02-13T16:02:01.014Z,58.80
2023-02-13T16:04:28.313Z,58.92
2023-02-13T16:06:56.360Z,59.45
2023-02-13T16:09:34.211Z,59.86
2023-02-13T16:12:28.134Z,59.60
2023-02-13T16:15:02.154Z,59.85
2023-02-13T16:17:37.459Z,60.22
2023-02-13T16:20:27.192Z,60.09
2023-02-13T16:22:59.063Z,60.67
2023-02-13T16:25:38.255Z,61.68
2023-02-13T16:28:18.276Z,61.07
2023-02-13T16:30:59.286Z,62.00
2023-02-13T16:33:44.552Z,62.20
2023-02-13T16:36:10.849Z,63.00
2023-02-13T16:38:48.198Z,62.05
2023-02-13T16:41:17.594Z,62.69
2023-02-13T16:44:03.510Z,62.82
2023-02-13T16:46:41.062Z,64.29
2023-02-13T16:49:10.791Z,64.20
2023-02-13T16:51:48.003Z,64.81
2023-02-13T16:54:20.411Z,64.69
2023-02-13T16:57:18.045Z,64.92
2023-02-13T16:59:47.407Z,64.97
2023-02-13T17:02:27.499Z,65.67
2023-02-13T17:05:09.171Z,66.41
2023-02-13T17:07:48.250Z,66.68
2023-02-13T17:10:34.961Z,67.82
2023-02-13T17:13:11.448Z,67.18
2023-02-13T17:15:41.879Z,66.96
2023-02-13T17:18:08.271Z,67.45
2023-02-13T17:20:36.077Z,68.40
2023-02-13T17:23:05.644Z,68.91
2023-02-13T17:25:35.252Z,68.31
2023-02-13T17:28:17.506Z,68.31
2023-02-13T17:30:45.007Z,68.98
2023-02-13T17:33:14.562Z,68.97
2023-02-13T17:35:40.998Z,69.08
2023-02-13T17:38:09.441Z,69.88
2023-02-13T17:40:36.495Z,69.82
2023-02-13T17:43:04.708Z,69.96
2023-02-13T17:45:33.655Z,71.19
2023-02-13T17:48:00.167Z,71.12
2023-02-13T17:50:28.724Z,71.25
2023-02-13T17:52:55.612Z,71.39
2023-02-13T17:55:25.405Z,72.51
2023-02-13T17:57:56.494Z,72.31
2023-02-13T18:00:25.192Z,73.07
2023-02-13T18:02:51.697Z,73.13
2023-02-13T18:05:19.148Z,73.97
2023-02-13T18:07:46.352Z,74.72
2023-02-13T18:10:16.766Z,74.21
2023-02-13T18:12:43.739Z,74.65
2023-02-13T18:15:11.077Z,74.69
2023-02-13T18:17:37.650Z,74.20
2023-02-13T18:20:09.659Z,74.68
2023-02-13T18:22:36.293Z,75.26
2023-02-13T18:25:02.818Z,75.52
2023-02-13T18:27:29.582Z,75.24
2023-02-13T18:29:56.152Z,75.71
2023-02-13T18:32:23.335Z,75.38
2023-02-13T18:34:50.099Z,76.06
2023-02-13T18:37:17.434Z,76.20
2023-02-13T18:39:44.210Z,76.51
2023-02-13T18:42:13.101Z,76.14
2023-02-13T18:44:40.169Z,76.76
2023-02-13T18:47:06.882Z,77.36
2023-02-13T18:49:33.347Z,77.66
2023-02-13T18:52:00.629Z,77.62
2023-02-13T18:54:26.958Z,78.44
2023-02-13T18:56:53.360Z,78.00
2023-02-13T18:59:19.725Z,78.54
2023-02-13T19:01:46.110Z,79.25
2023-02-13T19:04:12.569Z,78.93
2023-02-13T19:06:40.422Z,79.91
2023-02-13T19:09:07.018Z,79.81
2023-02-13T19:11:34.234Z,79.66
2023-02-13T19:14:02.280Z,80.27
2023-02-13T19:16:30.629Z,79.72
2023-02-13T19:19:00.007Z,79.93
2023-02-13T19:21:28.689Z,79.45
2023-02-13T19:23:55.176Z,79.58
2023-02-13T19:26:24.273Z,79.93
2023-02-13T19:28:51.512Z,80.31
2023-02-13T19:31:21.335Z,80.68
2023-02-13T19:33:49.106Z,80.78
2023-02-13T19:36:19.826Z,81.35
2023-02-13T19:38:47.547Z,81.65
2023-02-13T19:41:17.118Z,81.92
2023-02-13T19:43:53.152Z,82.34
2023-02-13T19:46:22.905Z,82.44
2023-02-13T19:48:49.918Z,82.61
2023-02-13T19:51:19.002Z,82.49
2023-02-13T19:53:45.734Z,82.51
2023-02-13T19:56:13.152Z,82.85
2023-02-13T19:58:41.535Z,83.06
2023-02-13T20:01:10.433Z,83.12
2023-02-13T20:03:37.303Z,82.98
2023-02-13T20:06:08.756Z,82.80
2023-02-13T20:08:35.625Z,83.02
2023-02-13T20:11:02.007Z,82.89
2023-02-13T20:13:28.566Z,82.92
2023-02-13T20:15:55.150Z,83.00
2023-02-13T20:18:21.886Z,83.09
2023-02-13T20:20:48.399Z,83.31
2023-02-13T20:23:17.500Z,83.24
2023-02-13T20:25:44.449Z,83.36
2023-02-13T20:28:11.464Z,83.41
2023-02-13T20:30:42.113Z,83.36
2023-02-13T20:33:08.942Z,82.89
2023-02-13T20:35:35.789Z,83.31
2023-02-13T20:38:02.410Z,83.33
2023-02-13T20:40:28.982Z,83.46
2023-02-13T20:42:55.457Z,83.72
2023-02-13T20:45:21.883Z,83.69
2023-02-13T20:47:48.624Z,83.73
2023-02-13T20:50:14.955Z,83.70
2023-02-13T20:52:41.285Z,83.88
2023-02-13T20:55:07.905Z,83.88
2023-02-13T20:57:35.407Z,83.96
2023-02-13T21:00:04.520Z,84.21
2023-02-13T21:02:31.057Z,84.24
2023-02-13T21:04:57.571Z,84.39
2023-02-13T21:07:23.918Z,84.48
2023-02-13T21:09:50.285Z,84.12
2023-02-13T21:12:16.649Z,84.44
2023-02-13T21:14:43.090Z,84.97
2023-02-13T21:17:09.628Z,85.05
2023-02-13T21:19:36.169Z,85.43
2023-02-13T21:22:11.931Z,84.75
2023-02-13T21:24:40.234Z,86.11
2023-02-13T21:27:07.869Z,85.81
2023-02-13T21:29:35.566Z,85.67
2023-02-13T21:32:02.409Z,85.38
2023-02-13T21:34:29.156Z,86.06
2023-02-13T21:36:55.528Z,85.61
2023-02-13T21:39:21.874Z,86.28
2023-02-13T21:41:48.690Z,86.21
2023-02-13T21:44:15.827Z,86.25
2023-02-13T21:46:43.729Z,86.07
2023-02-13T21:49:12.752Z,86.23
2023-02-13T21:51:39.124Z,86.32
2023-02-13T21:54:05.945Z,86.61
2023-02-13T21:56:35.893Z,87.18
2023-02-13T21:59:02.721Z,87.93
2023-02-13T22:01:44.306Z,88.35
2023-02-13T22:04:10.772Z,87.97
2023-02-13T22:06:38.761Z,87.92
2023-02-13T22:09:11.242Z,87.48
2023-02-13T22:11:38.281Z,87.89
2023-02-13T22:14:07.566Z,87.95
2023-02-13T22:16:36.548Z,87.40
2023-02-13T22:19:04.120Z,87.75
2023-02-13T22:21:31.964Z,88.00
2023-02-13T22:23:58.974Z,88.01
2023-02-13T22:26:29.874Z,88.17
2023-02-13T22:29:02.226Z,87.89
2023-02-13T22:31:29.070Z,88.28
2023-02-13T22:34:05.012Z,88.31
2023-02-13T22:36:40.023Z,88.03
2023-02-13T22:39:08.155Z,88.17
2023-02-13T22:41:34.574Z,89.06
2023-02-13T22:44:00.973Z,88.20
2023-02-13T22:46:31.492Z,88.68
2023-02-13T22:48:58.913Z,88.37
2023-02-13T22:51:28.146Z,88.87
2023-02-13T22:53:56.408Z,88.36
2023-02-13T22:56:24.252Z,88.79
2023-02-13T22:58:50.908Z,88.78
2023-02-13T23:01:19.412Z,88.59
2023-02-13T23:03:46.396Z,88.34
2023-02-13T23:06:14.581Z,89.04
2023-02-13T23:08:41.414Z,89.28
2023-02-13T23:11:32.268Z,89.18
2023-02-13T23:13:58.897Z,89.22
2023-02-13T23:16:25.643Z,88.91
2023-02-13T23:18:54.324Z,89.48
2023-02-13T23:21:21.268Z,89.02
2023-02-13T23:23:47.992Z,89.14
2023-02-13T23:26:14.407Z,89.03
2023-02-13T23:28:40.777Z,88.87
2023-02-13T23:31:07.306Z,89.15
2023-02-13T23:33:33.758Z,89.46
2023-02-13T23:36:00.183Z,89.02
2023-02-13T23:38:26.621Z,88.85
2023-02-13T23:40:52.991Z,89.60
2023-02-13T23:43:19.346Z,88.98
2023-02-13T23:45:46.050Z,89.34
2023-02-13T23:48:12.709Z,89.36
2023-02-13T23:50:40.129Z,89.36
2023-02-13T23:53:06.517Z,89.50
2023-02-13T23:55:32.911Z,90.37
2023-02-13T23:57:59.291Z,89.45
